Time;durP1;ratioP1;P1;durP2;ratioP2;P2;SDS_P1;SDS_P2;PMS_P1;PMS_P2;Temp;Humidity;BMP_temperature;BMP_pressure;BME280_temperature;BME280_humidity;BME280_pressure;Samples;Min_cycle;Max_cycle;Signal;HPM_P1;HPM_P2
2023/12/06 00:01:14;;;;;;;68.35;32.38;;;;;;;0.95;100.00;100105.38;5092408;28;20092;-44
2023/12/06 00:03:43;;;;;;;72.72;33.58;;;;;;;0.90;100.00;100096.75;5093034;28;20130;-43
2023/12/06 00:06:12;;;;;;;69.90;32.20;;;;;;;0.90;100.00;100104.63;5092966;28;20056;-44
2023/12/06 00:08:41;;;;;;;75.78;35.22;;;;;;;0.80;100.00;100092.59;5093012;28;20131;-42
2023/12/06 00:11:10;;;;;;;66.30;32.30;;;;;;;0.84;100.00;100095.13;5092809;28;20054;-42
2023/12/06 00:13:38;;;;;;;70.78;33.28;;;;;;;0.85;100.00;100093.34;5092211;28;20047;-42
2023/12/06 00:16:07;;;;;;;77.22;33.42;;;;;;;0.85;100.00;100103.84;5092752;28;20048;-42
2023/12/06 00:18:35;;;;;;;73.65;33.60;;;;;;;0.83;100.00;100095.16;5092481;28;20048;-42
2023/12/06 00:21:04;;;;;;;74.90;35.83;;;;;;;0.84;100.00;100097.75;5093112;28;20052;-42
2023/12/06 00:23:32;;;;;;;70.43;33.22;;;;;;;0.79;100.00;100096.13;5092370;28;20048;-42
2023/12/06 00:26:02;;;;;;;73.60;35.15;;;;;;;0.75;100.00;100091.84;5092549;28;20048;-43
2023/12/06 00:28:30;;;;;;;74.75;34.33;;;;;;;0.89;100.00;100086.28;5092320;28;20044;-44
2023/12/06 00:30:58;;;;;;;74.72;35.33;;;;;;;0.84;100.00;100091.63;5092381;28;20109;-42
2023/12/06 00:33:29;;;;;;;79.85;36.20;;;;;;;1.05;100.00;100090.25;5092248;28;20044;-43
2023/12/06 00:35:57;;;;;;;80.93;36.15;;;;;;;1.04;100.00;100094.66;5092236;28;20506;-45
2023/12/06 00:38:26;;;;;;;76.65;35.17;;;;;;;0.96;100.00;100088.72;5091888;28;20052;-42
2023/12/06 00:40:55;;;;;;;77.90;35.05;;;;;;;0.87;100.00;100083.69;5091735;28;20599;-42
2023/12/06 00:43:25;;;;;;;76.90;35.00;;;;;;;0.98;100.00;100081.69;5092474;28;20040;-42
2023/12/06 00:45:54;;;;;;;75.93;34.47;;;;;;;0.80;100.00;100075.09;5092660;28;20414;-42
2023/12/06 00:48:23;;;;;;;73.60;34.40;;;;;;;0.85;100.00;100077.59;5092201;28;20048;-42
2023/12/06 00:50:52;;;;;;;76.20;34.60;;;;;;;0.84;100.00;100081.97;5092010;28;20052;-44
2023/12/06 00:53:20;;;;;;;78.05;35.25;;;;;;;1.04;100.00;100078.03;5091894;28;20140;-44
2023/12/06 00:55:48;;;;;;;74.05;34.35;;;;;;;1.08;100.00;100079.69;5092246;28;20056;-41
2023/12/06 00:58:16;;;;;;;70.97;32.45;;;;;;;0.95;100.00;100075.63;5092238;28;20133;-43
2023/12/06 01:00:46;;;;;;;69.68;34.55;;;;;;;0.88;100.00;100071.44;5092112;28;20109;-43
2023/12/06 01:03:15;;;;;;;73.60;35.25;;;;;;;0.90;100.00;100067.88;5090987;28;20421;-43
2023/12/06 01:05:43;;;;;;;75.03;33.25;;;;;;;0.91;100.00;100068.72;5091851;28;20054;-43
2023/12/06 01:08:11;;;;;;;73.20;34.15;;;;;;;1.11;100.00;100069.97;5092023;28;20071;-42
2023/12/06 01:10:42;;;;;;;70.57;32.95;;;;;;;1.11;100.00;100079.59;5092281;28;20044;-42
2023/12/06 01:13:11;;;;;;;75.18;32.88;;;;;;;1.15;100.00;100066.34;5092281;28;20044;-43
2023/12/06 01:15:39;;;;;;;69.30;32.08;;;;;;;1.17;100.00;100063.72;5092376;28;20089;-43
2023/12/06 01:18:09;;;;;;;66.50;32.38;;;;;;;0.98;100.00;100058.03;5091792;28;20081;-42
2023/12/06 01:20:38;;;;;;;64.57;31.30;;;;;;;0.92;100.00;100065.19;5092182;28;20056;-43
2023/12/06 01:23:07;;;;;;;69.50;32.60;;;;;;;1.02;100.00;100059.69;5091364;28;20044;-42
2023/12/06 01:25:35;;;;;;;70.20;32.88;;;;;;;0.91;100.00;100061.72;5091443;28;20055;-43
2023/12/06 01:28:04;;;;;;;70.32;32.65;;;;;;;0.98;100.00;100051.94;5092153;28;20048;-42
2023/12/06 01:30:32;;;;;;;65.50;32.13;;;;;;;1.10;100.00;100056.88;5091784;28;20051;-41
2023/12/06 01:33:01;;;;;;;69.78;32.65;;;;;;;1.13;100.00;100055.03;5091957;28;20212;-42
2023/12/06 01:35:31;;;;;;;63.55;31.80;;;;;;;1.10;100.00;100057.72;5091695;28;20048;-43
2023/12/06 01:38:00;;;;;;;68.15;31.58;;;;;;;1.28;100.00;100048.53;5091690;28;20048;-42
2023/12/06 01:40:28;;;;;;;69.10;33.90;;;;;;;1.40;100.00;100047.34;5091738;28;20048;-42
2023/12/06 01:42:56;;;;;;;63.90;31.55;;;;;;;1.30;100.00;100037.97;5092080;28;20071;-41
2023/12/06 01:45:25;;;;;;;68.40;31.52;;;;;;;1.37;100.00;100034.28;5091822;28;20088;-42
2023/12/06 01:47:55;;;;;;;68.03;32.70;;;;;;;1.26;100.00;100037.22;5092063;28;20447;-42
2023/12/06 01:50:24;;;;;;;68.00;32.88;;;;;;;1.28;100.00;100029.28;5092098;28;20516;-42
2023/12/06 01:52:59;;;;;;;67.70;31.15;;;;;;;1.29;100.00;100023.97;5091432;28;20131;-42
2023/12/06 01:55:30;;;;;;;72.70;32.33;;;;;;;1.22;100.00;100022.41;5091336;28;20097;-43
2023/12/06 01:57:59;;;;;;;66.20;31.70;;;;;;;1.41;100.00;100020.16;5091126;28;20047;-41
2023/12/06 02:00:31;;;;;;;67.10;32.40;;;;;;;1.22;100.00;100014.50;5091575;28;20075;-42
2023/12/06 02:03:00;;;;;;;68.20;32.40;;;;;;;1.12;100.00;100020.91;5091455;28;20044;-43
2023/12/06 02:05:28;;;;;;;66.43;30.33;;;;;;;1.17;100.00;100012.94;5091487;28;20044;-42
2023/12/06 02:07:59;;;;;;;66.50;32.15;;;;;;;1.07;100.00;100004.41;5091177;28;20048;-42
2023/12/06 02:10:28;;;;;;;62.33;29.77;;;;;;;1.01;100.00;100008.06;5091100;28;20048;-42
2023/12/06 02:12:56;;;;;;;63.08;31.50;;;;;;;1.21;100.00;100001.44;5090982;28;20040;-41
2023/12/06 02:15:25;;;;;;;59.55;29.27;;;;;;;1.28;100.00;99998.59;5094391;28;20043;-44
2023/12/06 02:17:54;;;;;;;63.65;30.30;;;;;;;1.25;100.00;99993.41;5094791;28;20093;-41
2023/12/06 02:20:23;;;;;;;63.25;29.08;;;;;;;1.29;100.00;99994.22;5094714;28;20104;-42
2023/12/06 02:22:53;;;;;;;61.20;30.02;;;;;;;1.20;100.00;99997.06;5094746;28;20131;-41
2023/12/06 02:25:23;;;;;;;61.55;28.90;;;;;;;1.22;100.00;100000.53;5094533;28;20044;-41
2023/12/06 02:27:52;;;;;;;62.97;30.30;;;;;;;1.22;100.00;99992.63;5094913;28;20052;-42
2023/12/06 02:30:20;;;;;;;64.13;29.98;;;;;;;1.20;100.00;99983.94;5095189;28;20048;-44
2023/12/06 02:32:49;;;;;;;64.47;29.38;;;;;;;1.26;100.00;99989.03;5095090;28;21200;-41
2023/12/06 02:35:22;;;;;;;62.90;29.60;;;;;;;1.25;100.00;99988.16;5094810;28;20052;-40
2023/12/06 02:37:55;;;;;;;59.92;29.63;;;;;;;1.32;100.00;99983.59;5094161;28;20050;-41
2023/12/06 02:40:29;;;;;;;;;;;;;;;1.42;100.00;99979.81;5094930;28;20052;-40
2023/12/06 02:42:58;;;;;;;63.72;28.98;;;;;;;1.54;100.00;99979.47;5094610;28;19920;-42
2023/12/06 02:45:27;;;;;;;58.65;27.63;;;;;;;1.39;100.00;99979.91;5097943;28;20074;-41
2023/12/06 02:47:55;;;;;;;55.45;26.52;;;;;;;1.31;100.00;99980.13;5099738;28;20072;-43
2023/12/06 02:50:24;;;;;;;60.45;29.00;;;;;;;1.06;100.00;99985.16;5098242;28;20044;-42
2023/12/06 02:52:52;;;;;;;57.30;27.55;;;;;;;1.25;100.00;99980.28;5098976;28;20613;-41
2023/12/06 02:55:20;;;;;;;62.13;28.48;;;;;;;1.50;100.00;99988.38;5099001;28;20048;-43
2023/12/06 02:57:50;;;;;;;66.60;29.17;;;;;;;1.63;100.00;99988.88;5098497;28;20059;-41
2023/12/06 03:00:19;;;;;;;61.03;28.73;;;;;;;1.79;100.00;99990.19;5096849;28;20125;-42
2023/12/06 03:02:47;;;;;;;57.35;27.67;;;;;;;1.70;100.00;99978.16;5096557;28;20047;-42
2023/12/06 03:05:16;;;;;;;59.20;27.60;;;;;;;1.51;100.00;99974.31;5098085;28;20048;-42
2023/12/06 03:07:44;;;;;;;58.85;27.85;;;;;;;1.27;100.00;99973.22;5098142;28;20048;-42
2023/12/06 03:10:13;;;;;;;58.50;27.50;;;;;;;1.31;100.00;99976.63;5098868;28;20154;-42
2023/12/06 03:12:42;;;;;;;61.45;29.02;;;;;;;1.34;100.00;99968.66;5098892;28;20040;-42
2023/12/06 03:15:11;;;;;;;59.60;27.75;;;;;;;1.40;100.00;99966.72;5100158;28;20072;-42
2023/12/06 03:17:40;;;;;;;61.67;28.67;;;;;;;1.37;100.00;99981.72;5101215;28;20485;-42
2023/12/06 03:20:10;;;;;;;60.38;26.95;;;;;;;1.46;100.00;99985.88;5101425;28;20048;-41
2023/12/06 03:22:38;;;;;;;58.55;26.83;;;;;;;1.14;100.00;99991.06;5101768;28;20048;-43
2023/12/06 03:25:08;;;;;;;60.55;27.52;;;;;;;1.19;100.00;99979.59;5100918;28;20052;-44
2023/12/06 03:27:36;;;;;;;61.72;28.58;;;;;;;1.09;100.00;99990.34;5100793;28;20537;-42
2023/12/06 03:30:07;;;;;;;60.05;27.20;;;;;;;1.06;100.00;99984.28;5098824;28;20109;-41
2023/12/06 03:32:39;;;;;;;59.78;27.88;;;;;;;1.14;100.00;99985.81;5101798;28;20052;-43
2023/12/06 03:35:08;;;;;;;60.80;27.45;;;;;;;1.06;100.00;99981.66;5101382;28;20044;-41
2023/12/06 03:37:37;;;;;;;62.33;28.27;;;;;;;1.03;100.00;99987.84;5100541;28;20164;-47
2023/12/06 03:40:06;;;;;;;58.95;28.17;;;;;;;1.06;100.00;99976.41;5095708;28;20436;-42
2023/12/06 03:42:35;;;;;;;67.22;29.20;;;;;;;1.04;100.00;99979.06;5096483;28;20050;-41
2023/12/06 03:45:04;;;;;;;64.72;28.60;;;;;;;1.19;100.00;99979.59;5094208;28;20075;-42
2023/12/06 03:47:32;;;;;;;68.05;29.90;;;;;;;1.28;100.00;99981.97;5093983;28;20723;-41
2023/12/06 03:50:02;;;;;;;62.22;29.08;;;;;;;1.26;100.00;99973.28;5093858;28;21157;-43
2023/12/06 03:52:31;;;;;;;63.05;29.50;;;;;;;1.39;100.00;99972.03;5093891;28;20044;-42
2023/12/06 03:55:00;;;;;;;63.22;28.73;;;;;;;1.42;100.00;99972.81;5093630;28;20044;-41
2023/12/06 03:57:29;;;;;;;62.83;27.75;;;;;;;1.32;100.00;99968.69;5093133;28;20525;-41
2023/12/06 03:59:57;;;;;;;63.88;28.17;;;;;;;1.24;100.00;99970.66;5093528;28;20048;-42
2023/12/06 04:02:26;;;;;;;60.13;27.48;;;;;;;1.42;100.00;99972.81;5093253;28;20085;-40
2023/12/06 04:04:54;;;;;;;57.22;26.92;;;;;;;1.41;100.00;99971.09;5092668;28;20134;-43
2023/12/06 04:07:24;;;;;;;57.67;27.77;;;;;;;1.65;100.00;99968.69;5092952;28;20142;-41
2023/12/06 04:09:52;;;;;;;62.22;27.38;;;;;;;1.54;100.00;99968.97;5092661;28;20048;-46
2023/12/06 04:12:21;;;;;;;61.53;28.00;;;;;;;1.66;100.00;99968.66;5092791;28;20467;-43
2023/12/06 04:14:49;;;;;;;62.58;29.50;;;;;;;1.60;100.00;99966.19;5092341;28;20092;-42
2023/12/06 04:17:18;;;;;;;63.35;28.65;;;;;;;1.48;100.00;99963.91;5092894;28;20127;-44
2023/12/06 04:19:46;;;;;;;61.30;27.95;;;;;;;1.37;100.00;99956.31;5092520;28;20063;-40
2023/12/06 04:22:14;;;;;;;60.83;28.75;;;;;;;1.57;100.00;99960.16;5092652;28;20139;-41
2023/12/06 04:24:44;;;;;;;59.78;27.23;;;;;;;1.83;100.00;99960.25;5092516;28;20094;-41
2023/12/06 04:27:12;;;;;;;57.08;27.63;;;;;;;1.70;100.00;99959.75;5092836;28;20465;-42
2023/12/06 04:29:40;;;;;;;61.42;28.20;;;;;;;1.87;100.00;99968.94;5092633;28;20048;-42
2023/12/06 04:32:09;;;;;;;57.65;27.42;;;;;;;1.79;100.00;99973.53;5092761;28;20070;-41
2023/12/06 04:34:49;;;;;;;54.85;27.80;;;;;;;1.68;100.00;99965.97;5092560;28;20089;-41
2023/12/06 04:37:17;;;;;;;55.92;27.17;;;;;;;1.57;100.00;99966.28;5092703;28;20064;-41
2023/12/06 04:39:47;;;;;;;52.72;26.67;;;;;;;1.51;100.00;99966.44;5092330;28;20048;-40
2023/12/06 04:42:16;;;;;;;54.75;25.42;;;;;;;1.57;100.00;99958.38;5092092;28;20048;-41
2023/12/06 04:44:45;;;;;;;58.33;26.88;;;;;;;1.57;100.00;99947.00;5092444;28;20075;-42
2023/12/06 04:47:13;;;;;;;51.53;25.60;;;;;;;1.62;100.00;99956.47;5092165;28;20052;-41
2023/12/06 04:49:41;;;;;;;58.33;25.58;;;;;;;1.65;100.00;99953.78;5092329;28;20047;-41
2023/12/06 04:52:10;;;;;;;58.58;27.27;;;;;;;1.86;100.00;99948.81;5092403;28;20446;-42
2023/12/06 04:54:38;;;;;;;54.45;26.25;;;;;;;1.65;100.00;99951.16;5092129;28;20173;-41
2023/12/06 04:57:08;;;;;;;51.90;26.20;;;;;;;1.56;100.00;99945.28;5092103;28;20082;-41
2023/12/06 04:59:36;;;;;;;57.67;27.10;;;;;;;1.50;100.00;99941.06;5092257;28;20040;-43
2023/12/06 05:02:05;;;;;;;55.83;26.02;;;;;;;1.60;100.00;99947.78;5091930;28;20048;-40
2023/12/06 05:04:33;;;;;;;53.92;25.13;;;;;;;1.58;100.00;99938.22;5091808;28;20044;-40
2023/12/06 05:07:01;;;;;;;54.10;26.10;;;;;;;1.65;100.00;99945.88;5092269;28;20076;-41
2023/12/06 05:09:29;;;;;;;53.53;26.67;;;;;;;1.75;100.00;99945.63;5092213;28;20048;-40
2023/12/06 05:11:57;;;;;;;50.03;23.48;;;;;;;1.48;100.00;99952.53;5092430;28;20060;-40
2023/12/06 05:14:26;;;;;;;51.40;26.05;;;;;;;1.64;100.00;99948.53;5092039;28;20044;-42
2023/12/06 05:16:55;;;;;;;49.80;24.65;;;;;;;1.42;100.00;99948.28;5091749;28;20458;-40
2023/12/06 05:19:23;;;;;;;53.83;24.38;;;;;;;1.65;100.00;99943.25;5091549;28;20070;-40
2023/12/06 05:21:53;;;;;;;51.05;25.25;;;;;;;1.72;100.00;99951.81;5091585;28;20082;-41
2023/12/06 05:24:21;;;;;;;48.83;24.10;;;;;;;1.53;100.00;99953.25;5091439;28;20127;-44
2023/12/06 05:26:49;;;;;;;53.10;25.38;;;;;;;1.65;100.00;99950.28;5091836;28;20398;-43
2023/12/06 05:29:19;;;;;;;49.75;24.30;;;;;;;1.46;100.00;99954.34;5091725;28;20136;-41
2023/12/06 05:31:49;;;;;;;52.38;25.33;;;;;;;1.42;100.00;99958.81;5091232;28;20064;-41
2023/12/06 05:34:19;;;;;;;51.25;25.38;;;;;;;1.39;100.00;99954.50;5091660;28;20052;-41
2023/12/06 05:36:47;;;;;;;51.83;25.05;;;;;;;1.36;100.00;99953.72;5091990;28;20157;-41
2023/12/06 05:39:17;;;;;;;55.42;26.42;;;;;;;1.51;100.00;99955.06;5091690;28;20044;-41
2023/12/06 05:41:45;;;;;;;55.58;26.42;;;;;;;1.39;100.00;99958.91;5091478;28;20144;-41
2023/12/06 05:44:14;;;;;;;55.88;26.35;;;;;;;1.37;100.00;99952.81;5091116;28;20139;-41
2023/12/06 05:46:42;;;;;;;55.10;25.80;;;;;;;1.23;100.00;99955.81;5091471;28;20116;-40
2023/12/06 05:49:12;;;;;;;51.15;25.92;;;;;;;1.25;100.00;99945.25;5092503;28;20054;-41
2023/12/06 05:51:40;;;;;;;54.03;25.73;;;;;;;1.18;100.00;99947.22;5095313;28;20044;-41
2023/12/06 05:54:09;;;;;;;53.90;25.75;;;;;;;1.43;100.00;99950.00;5094992;28;20101;-41
2023/12/06 05:56:37;;;;;;;59.88;27.17;;;;;;;1.41;100.00;99952.69;5094679;28;20088;-42
2023/12/06 05:59:05;;;;;;;56.65;26.55;;;;;;;1.22;100.00;99940.09;5095528;28;20551;-40
2023/12/06 06:01:34;;;;;;;53.88;26.48;;;;;;;1.29;100.00;99944.28;5095381;28;20052;-41
2023/12/06 06:04:03;;;;;;;61.95;28.48;;;;;;;1.47;100.00;99935.03;5095189;28;20067;-40
2023/12/06 06:06:35;;;;;;;60.85;27.95;;;;;;;1.70;100.00;99938.72;5094757;28;20047;-42
2023/12/06 06:09:04;;;;;;;58.55;28.02;;;;;;;1.63;100.00;99933.66;5094554;28;20134;-42
2023/12/06 06:11:32;;;;;;;54.67;26.67;;;;;;;1.34;100.00;99937.13;5094694;28;20044;-42
2023/12/06 06:14:00;;;;;;;52.92;25.92;;;;;;;1.32;100.00;99938.94;5094564;28;20044;-41
2023/12/06 06:16:29;;;;;;;53.97;27.33;;;;;;;1.30;100.00;99938.97;5095515;28;20053;-41
2023/12/06 06:18:57;;;;;;;52.50;25.65;;;;;;;1.34;100.00;99947.63;5095164;28;20048;-41
2023/12/06 06:21:25;;;;;;;54.97;25.60;;;;;;;1.32;100.00;99941.56;5094324;28;20047;-41
2023/12/06 06:23:55;;;;;;;55.75;27.70;;;;;;;1.34;100.00;99937.97;5094644;28;20436;-41
2023/12/06 06:26:24;;;;;;;53.67;26.42;;;;;;;1.40;100.00;99940.44;5094558;28;20059;-42
2023/12/06 06:28:52;;;;;;;58.13;27.73;;;;;;;1.41;100.00;99941.31;5094455;28;20125;-40
2023/12/06 06:31:21;;;;;;;54.47;27.30;;;;;;;1.60;100.00;99952.16;5094433;28;20067;-42
2023/12/06 06:33:50;;;;;;;56.88;27.83;;;;;;;1.68;100.00;99951.06;5095820;28;20416;-42
2023/12/06 06:36:19;;;;;;;50.35;27.10;;;;;;;1.78;100.00;99954.28;5096586;28;20601;-40
2023/12/06 06:38:48;;;;;;;55.08;27.23;;;;;;;1.82;100.00;99955.03;5096556;28;20052;-42
2023/12/06 06:41:18;;;;;;;56.45;28.08;;;;;;;1.76;100.00;99958.72;5097771;28;20063;-42
2023/12/06 06:43:46;;;;;;;53.50;27.25;;;;;;;1.78;100.00;99956.91;5096634;28;20074;-40
2023/12/06 06:46:15;;;;;;;55.90;26.75;;;;;;;1.80;100.00;99965.59;5094615;28;20457;-41
2023/12/06 06:48:44;;;;;;;50.58;25.67;;;;;;;1.74;100.00;99965.81;5094612;28;20048;-41
2023/12/06 06:51:12;;;;;;;53.28;25.25;;;;;;;1.71;100.00;99965.88;5095138;28;20060;-42
2023/12/06 06:53:41;;;;;;;51.00;26.02;;;;;;;1.83;100.00;99964.66;5096977;28;20090;-41
2023/12/06 06:56:09;;;;;;;51.25;24.40;;;;;;;1.86;100.00;99967.22;5096608;28;20048;-42
2023/12/06 06:58:43;;;;;;;49.40;25.58;;;;;;;1.75;100.00;99966.66;5096904;28;20044;-41
2023/12/06 07:01:11;;;;;;;48.78;25.30;;;;;;;1.64;100.00;99966.94;5094508;28;20056;-42
2023/12/06 07:03:40;;;;;;;53.15;25.60;;;;;;;1.60;100.00;99967.94;5093965;28;20040;-40
2023/12/06 07:06:09;;;;;;;51.88;25.20;;;;;;;1.68;100.00;99965.97;5093759;28;20048;-42
2023/12/06 07:08:38;;;;;;;51.72;26.00;;;;;;;1.85;100.00;99968.13;5093934;28;20080;-41
2023/12/06 07:11:06;;;;;;;57.33;27.08;;;;;;;1.92;100.00;99973.13;5096133;28;20051;-40
2023/12/06 07:13:36;;;;;;;51.72;26.73;;;;;;;1.95;100.00;99972.22;5095889;28;20044;-41
2023/12/06 07:16:07;;;;;;;50.72;25.35;;;;;;;2.01;100.00;99972.00;5096170;28;20076;-41
2023/12/06 07:18:35;;;;;;;53.58;25.95;;;;;;;2.03;100.00;99971.94;5095024;28;20109;-41
2023/12/06 07:21:04;;;;;;;49.22;25.70;;;;;;;2.06;100.00;99967.47;5093715;28;20082;-41
2023/12/06 07:23:32;;;;;;;48.60;25.20;;;;;;;2.04;100.00;99974.56;5093281;28;20044;-42
2023/12/06 07:26:01;;;;;;;51.97;24.25;;;;;;;1.98;100.00;99975.59;5093546;28;20369;-42
2023/12/06 07:28:29;;;;;;;46.67;24.13;;;;;;;1.66;100.00;99979.16;5093229;28;20447;-41
2023/12/06 07:31:00;;;;;;;47.80;24.23;;;;;;;1.88;100.00;99978.53;5093143;28;20048;-42
2023/12/06 07:33:30;;;;;;;52.92;25.77;;;;;;;2.04;100.00;99982.47;5092274;28;20135;-41
2023/12/06 07:35:59;;;;;;;51.53;25.27;;;;;;;1.99;100.00;99979.09;5091245;28;20549;-42
2023/12/06 07:38:28;;;;;;;51.20;26.38;;;;;;;1.87;100.00;99982.09;5089135;28;20044;-40
2023/12/06 07:40:57;;;;;;;48.92;25.90;;;;;;;1.77;100.00;99985.88;5091448;28;20109;-41
2023/12/06 07:43:27;;;;;;;53.97;27.42;;;;;;;1.92;100.00;99988.06;5089042;28;20445;-41
2023/12/06 07:45:55;;;;;;;52.35;25.58;;;;;;;1.98;100.00;99990.53;5091719;28;20370;-40
2023/12/06 07:48:24;;;;;;;54.75;26.70;;;;;;;2.06;100.00;99992.94;5091789;28;20051;-41
2023/12/06 07:50:53;;;;;;;50.67;25.35;;;;;;;1.93;100.00;99984.50;5091480;28;20070;-41
2023/12/06 07:53:23;;;;;;;54.35;26.42;;;;;;;1.87;100.00;99977.69;5091179;28;20048;-41
2023/12/06 07:55:54;;;;;;;51.10;25.63;;;;;;;1.83;100.00;99983.06;5091198;28;20770;-39
2023/12/06 07:58:23;;;;;;;51.95;24.85;;;;;;;1.78;100.00;99977.94;5092603;28;20475;-41
2023/12/06 08:00:52;;;;;;;49.60;24.45;;;;;;;1.82;100.00;99989.22;5092500;28;20048;-41
2023/12/06 08:03:24;;;;;;;44.92;22.92;;;;;;;1.81;100.00;99987.50;5092313;28;20113;-40
2023/12/06 08:05:54;;;;;;;53.38;24.88;;;;;;;1.73;100.00;99992.97;5092147;28;20048;-40
2023/12/06 08:08:22;;;;;;;49.75;25.73;;;;;;;1.87;100.00;99992.59;5092353;28;20429;-44
2023/12/06 08:10:52;;;;;;;52.53;24.85;;;;;;;1.93;100.00;99989.78;5092510;28;20048;-42
2023/12/06 08:13:21;;;;;;;48.38;23.83;;;;;;;1.73;100.00;99985.94;5092243;28;20135;-42
2023/12/06 08:15:49;;;;;;;51.20;25.30;;;;;;;1.88;100.00;99989.06;5091896;28;20179;-41
2023/12/06 08:18:17;;;;;;;48.42;23.90;;;;;;;1.99;100.00;99986.97;5091855;28;20381;-41
2023/12/06 08:20:45;;;;;;;47.80;23.50;;;;;;;1.98;100.00;99987.88;5091993;28;20125;-42
2023/12/06 08:23:16;;;;;;;48.25;25.25;;;;;;;1.94;100.00;99983.63;5091969;28;20056;-42
2023/12/06 08:25:45;;;;;;;48.38;24.40;;;;;;;1.93;100.00;99976.63;5090739;28;20501;-41
2023/12/06 08:28:13;;;;;;;47.97;24.52;;;;;;;1.90;100.00;99982.84;5092159;28;20087;-41
2023/12/06 08:30:41;;;;;;;47.50;23.75;;;;;;;1.90;100.00;99985.47;5092334;28;20390;-41
2023/12/06 08:33:11;;;;;;;51.60;25.23;;;;;;;1.90;100.00;99987.25;5091970;28;20122;-40
2023/12/06 08:35:40;;;;;;;49.17;24.30;;;;;;;1.93;100.00;99990.66;5091906;28;20044;-42
2023/12/06 08:38:08;;;;;;;51.58;25.42;;;;;;;1.87;100.00;99989.97;5092415;28;20495;-40
2023/12/06 08:40:38;;;;;;;47.60;23.42;;;;;;;1.83;100.00;99985.69;5092362;28;20052;-41
2023/12/06 08:43:06;;;;;;;45.33;22.48;;;;;;;1.79;100.00;99987.56;5092650;28;20048;-42
2023/12/06 08:45:35;;;;;;;48.50;23.98;;;;;;;1.93;100.00;99984.50;5091985;28;20044;-42
2023/12/06 08:48:06;;;;;;;45.30;23.23;;;;;;;2.11;100.00;99989.25;5091530;28;20408;-41
2023/12/06 08:50:35;;;;;;;46.05;23.27;;;;;;;1.95;100.00;99988.00;5091706;28;20087;-40
2023/12/06 08:53:03;;;;;;;51.05;24.63;;;;;;;2.09;100.00;99985.78;5091877;28;20048;-41
2023/12/06 08:55:32;;;;;;;49.22;23.42;;;;;;;1.95;100.00;99985.34;5091708;28;20044;-40
2023/12/06 08:58:01;;;;;;;47.05;23.77;;;;;;;1.80;100.00;99980.53;5091838;28;20044;-41
2023/12/06 09:00:29;;;;;;;46.83;23.27;;;;;;;1.76;100.00;99984.16;5091767;28;20071;-41
2023/12/06 09:02:58;;;;;;;46.47;24.23;;;;;;;1.85;100.00;99986.53;5091871;28;20101;-41
2023/12/06 09:05:26;;;;;;;53.47;23.85;;;;;;;1.86;100.00;99983.00;5092035;28;20132;-41
2023/12/06 09:07:55;;;;;;;46.20;23.65;;;;;;;1.97;100.00;99973.00;5091644;28;20483;-42
2023/12/06 09:10:23;;;;;;;47.28;23.52;;;;;;;2.16;100.00;99983.84;5091467;28;20098;-41
2023/12/06 09:12:52;;;;;;;45.80;22.20;;;;;;;1.90;100.00;99982.84;5091442;28;20051;-42
2023/12/06 09:15:21;;;;;;;46.72;23.60;;;;;;;2.25;100.00;99988.84;5091206;28;20047;-42
2023/12/06 09:17:50;;;;;;;46.45;22.90;;;;;;;2.23;100.00;99981.00;5091869;28;20052;-41
2023/12/06 09:20:18;;;;;;;43.78;22.77;;;;;;;2.24;100.00;99977.44;5091388;28;20500;-42
2023/12/06 09:22:47;;;;;;;46.22;23.20;;;;;;;2.21;100.00;99977.53;5091373;28;20453;-42
2023/12/06 09:25:15;;;;;;;45.35;23.73;;;;;;;2.32;100.00;99979.84;5094262;28;20055;-42
2023/12/06 09:27:44;;;;;;;50.22;24.42;;;;;;;2.29;100.00;99977.28;5095241;28;20044;-41
2023/12/06 09:30:13;;;;;;;49.85;25.25;;;;;;;2.55;100.00;99979.13;5095500;28;20044;-41
2023/12/06 09:32:43;;;;;;;49.80;24.38;;;;;;;2.76;100.00;99981.06;5095504;28;20095;-41
2023/12/06 09:35:11;;;;;;;49.60;24.38;;;;;;;2.68;100.00;99975.19;5095269;28;20048;-41
2023/12/06 09:37:41;;;;;;;44.05;22.77;;;;;;;2.70;100.00;99975.13;5095302;28;20083;-40
2023/12/06 09:40:11;;;;;;;46.00;22.67;;;;;;;2.72;100.00;99975.97;5095047;28;20087;-42
2023/12/06 09:42:44;;;;;;;44.63;22.33;;;;;;;2.70;100.00;99973.38;5095205;28;20048;-41
2023/12/06 09:45:14;;;;;;;48.28;23.33;;;;;;;2.56;100.00;99972.94;5095156;28;20044;-43
2023/12/06 09:47:46;;;;;;;40.63;20.95;;;;;;;2.49;100.00;99979.31;5094702;28;20562;-41
2023/12/06 09:50:14;;;;;;;42.80;21.55;;;;;;;2.50;100.00;99970.50;5095030;28;20048;-47
2023/12/06 09:52:43;;;;;;;46.03;22.33;;;;;;;2.66;100.00;99962.97;5094789;28;20047;-41
2023/12/06 09:55:12;;;;;;;46.15;22.25;;;;;;;2.70;100.00;99964.59;5094823;28;20059;-42
2023/12/06 09:57:41;;;;;;;44.55;21.05;;;;;;;2.78;100.00;99963.44;5094710;28;20562;-42
2023/12/06 10:00:13;;;;;;;44.10;21.38;;;;;;;2.48;100.00;99969.69;5094711;28;20043;-41
2023/12/06 10:02:53;;;;;;;39.97;21.73;;;;;;;2.53;100.00;99965.16;5094803;28;20087;-40
2023/12/06 10:05:21;;;;;;;41.97;20.63;;;;;;;2.66;100.00;99968.25;5094455;28;20048;-46
2023/12/06 10:07:51;;;;;;;41.00;20.45;;;;;;;2.58;100.00;99963.22;5095055;28;20051;-42
2023/12/06 10:10:21;;;;;;;42.58;20.73;;;;;;;2.58;100.00;99965.84;5094627;28;20070;-42
2023/12/06 10:12:51;;;;;;;38.60;20.38;;;;;;;2.60;100.00;99969.28;5094384;28;20093;-41
2023/12/06 10:15:20;;;;;;;43.80;22.15;;;;;;;2.71;100.00;99974.25;5094654;28;20071;-41
2023/12/06 10:17:49;;;;;;;38.47;20.20;;;;;;;2.71;100.00;99976.88;5094270;28;20048;-42
2023/12/06 10:20:22;;;;;;;41.22;21.00;;;;;;;2.78;100.00;99984.50;5094682;28;20048;-43
2023/12/06 10:22:51;;;;;;;44.67;23.02;;;;;;;2.69;100.00;99974.25;5094522;28;20044;-41
2023/12/06 10:25:19;;;;;;;43.72;22.42;;;;;;;2.79;100.00;99973.06;5094214;28;20113;-42
2023/12/06 10:27:48;;;;;;;43.63;22.23;;;;;;;2.88;100.00;99974.53;5094383;28;20105;-41
2023/12/06 10:30:21;;;;;;;46.30;21.45;;;;;;;2.80;100.00;99963.41;5094163;28;20405;-42
2023/12/06 10:32:51;;;;;;;42.97;20.77;;;;;;;2.78;100.00;99965.22;5094285;28;20048;-42
2023/12/06 10:35:24;;;;;;;43.03;22.45;;;;;;;2.79;100.00;99966.94;5093744;28;20455;-41
2023/12/06 10:37:53;;;;;;;43.15;21.33;;;;;;;2.82;100.00;99964.22;5094392;28;20048;-42
2023/12/06 10:40:23;;;;;;;39.42;18.77;;;;;;;2.63;100.00;99969.22;5093906;28;20577;-44
2023/12/06 10:43:00;;;;;;;39.70;20.58;;;;;;;2.69;100.00;99961.09;5094253;28;20392;-41
2023/12/06 10:45:30;;;;;;;39.42;20.90;;;;;;;2.56;100.00;99958.00;5093957;28;20142;-42
2023/12/06 10:47:58;;;;;;;42.95;22.00;;;;;;;2.63;100.00;99955.19;5094215;28;20126;-41
2023/12/06 10:50:30;;;;;;;42.70;22.38;;;;;;;2.58;100.00;99944.78;5093900;28;20063;-44
2023/12/06 10:53:00;;;;;;;43.72;22.02;;;;;;;2.66;100.00;99941.91;5093863;28;20054;-41
2023/12/06 10:55:31;;;;;;;48.97;22.20;;;;;;;2.67;100.00;99939.22;5093400;28;20036;-42
2023/12/06 10:58:01;;;;;;;46.17;22.33;;;;;;;2.86;100.00;99942.09;5093812;28;20071;-42
2023/12/06 11:00:30;;;;;;;50.28;22.02;;;;;;;2.82;100.00;99938.72;5093541;28;20059;-41
2023/12/06 11:02:58;;;;;;;44.28;22.90;;;;;;;3.11;100.00;99939.50;5093484;28;20054;-41
2023/12/06 11:05:37;;;;;;;48.38;23.25;;;;;;;3.13;100.00;99949.09;5093576;28;21035;-41
2023/12/06 11:08:37;;;;;;;46.83;23.38;;;;;;;3.22;100.00;99942.63;5093351;28;20044;-44
2023/12/06 11:11:22;;;;;;;45.13;23.00;;;;;;;2.84;100.00;99947.44;5093389;28;20044;-41
2023/12/06 11:14:00;;;;;;;40.50;20.95;;;;;;;2.91;100.00;99950.75;5093547;28;20055;-41
2023/12/06 11:16:42;;;;;;;43.10;21.75;;;;;;;2.91;100.00;99952.50;5093255;28;20048;-42
2023/12/06 11:19:13;;;;;;;40.85;21.52;;;;;;;2.92;100.00;99944.56;5093474;28;20139;-43
2023/12/06 11:21:43;;;;;;;40.35;20.33;;;;;;;2.91;100.00;99936.69;5092401;28;20044;-42
2023/12/06 11:24:11;;;;;;;42.00;21.00;;;;;;;2.98;100.00;99930.28;5093374;28;20455;-41
2023/12/06 11:26:40;;;;;;;39.92;21.75;;;;;;;2.92;100.00;99938.41;5092965;28;20048;-41